Time;durP1;ratioP1;P1;durP2;ratioP2;P2;SDS_P1;SDS_P2;PMS_P1;PMS_P2;Temp;Humidity;BMP_temperature;BMP_pressure;BME280_temperature;BME280_humidity;BME280_pressure;Samples;Min_cycle;Max_cycle;Signal;HPM_P1;HPM_P2
2022/01/16 00:04:34;;;;;;;139.57;76.47;;;51.40;2227.20;;;;;;5051629;28;20021;-77
2022/01/16 00:07:03;;;;;;;137.93;76.60;;;51.40;2227.20;;;;;;5049303;28;20041;-73
2022/01/16 00:09:31;;;;;;;137.30;77.50;;;51.40;2227.20;;;;;;5048131;28;20044;-67
2022/01/16 00:12:00;;;;;;;139.73;80.40;;;51.40;2227.20;;;;;;5046498;28;20018;-68
2022/01/16 00:14:26;;;;;;;143.50;78.80;;;51.40;2227.20;;;;;;5054438;28;20037;-68
2022/01/16 00:16:52;;;;;;;140.53;78.03;;;51.40;2227.20;;;;;;5055456;28;20041;-73
2022/01/16 00:19:18;;;;;;;146.00;82.20;;;51.30;2227.20;;;;;;5075657;28;20025;-68
2022/01/16 00:21:43;;;;;;;135.10;79.30;;;51.30;2227.20;;;;;;5064644;28;20036;-79
2022/01/16 00:24:11;;;;;;;141.53;79.93;;;51.30;2227.20;;;;;;5054398;28;20066;-77
2022/01/16 00:26:37;;;;;;;147.10;85.90;;;51.20;2227.20;;;;;;5051035;28;20079;-68
2022/01/16 00:29:07;;;;;;;145.07;79.27;;;51.20;2227.20;;;;;;5048304;28;20034;-77
2022/01/16 00:31:36;;;;;;;143.90;78.43;;;51.20;2227.20;;;;;;5052197;28;20025;-74
2022/01/16 00:34:03;;;;;;;142.50;80.93;;;51.30;2227.20;;;;;;5052869;28;20112;-68
2022/01/16 00:36:29;;;;;;;143.83;78.67;;;51.20;2227.20;;;;;;5051537;28;20554;-67
2022/01/16 00:38:57;;;;;;;138.40;80.93;;;51.20;2227.20;;;;;;5049315;28;20025;-78
2022/01/16 00:41:24;;;;;;;161.57;86.43;;;51.20;2227.20;;;;;;5050137;28;20081;-77
2022/01/16 00:43:51;;;;;;;160.90;90.07;;;51.30;2227.20;;;;;;5052094;28;20017;-68
2022/01/16 00:46:18;;;;;;;157.70;88.27;;;51.20;2227.20;;;;;;5049661;28;20047;-67
2022/01/16 00:48:45;;;;;;;154.53;90.10;;;51.20;2227.20;;;;;;5049179;28;20029;-67
2022/01/16 00:51:11;;;;;;;167.70;93.00;;;51.20;2227.20;;;;;;5047916;28;20017;-73
2022/01/16 00:53:39;;;;;;;164.33;91.63;;;51.20;2227.20;;;;;;5055611;28;20383;-73
2022/01/16 00:56:05;;;;;;;155.37;89.57;;;51.20;2227.20;;;;;;5059631;28;20005;-78
2022/01/16 00:58:31;;;;;;;142.17;81.60;;;26.50;2201.60;;;;;;5051724;28;20565;-67
2022/01/16 01:00:57;;;;;;;147.63;83.13;;;26.40;2201.60;;;;;;5056184;28;20104;-67
2022/01/16 01:03:25;;;;;;;142.50;80.20;;;26.40;2201.60;;;;;;5051573;28;20024;-71
2022/01/16 01:05:51;;;;;;;131.07;74.27;;;26.40;2201.60;;;;;;5034649;28;20076;-67
2022/01/16 01:08:18;;;;;;;115.23;66.57;;;26.30;2201.60;;;;;;5050947;28;20013;-73
2022/01/16 01:10:47;;;;;;;118.77;68.13;;;26.40;2201.60;;;;;;5052015;28;20025;-67
2022/01/16 01:13:30;;;;;;;109.30;64.43;;;26.40;2201.60;;;;;;5052639;28;20006;-73
2022/01/16 01:16:03;;;;;;;116.80;69.03;;;26.40;2201.60;;;;;;5051438;28;20540;-69
2022/01/16 01:18:34;;;;;;;114.72;64.30;;;26.30;2201.60;;;;;;5050783;28;20025;-69
2022/01/16 01:21:02;;;;;;;113.10;65.20;;;26.40;2201.60;;;;;;5049051;28;20025;-74
2022/01/16 01:23:30;;;;;;;109.27;64.70;;;26.40;2201.60;;;;;;5051986;28;20057;-67
2022/01/16 01:25:56;;;;;;;104.13;62.57;;;26.40;2201.60;;;;;;5052181;28;20013;-77
2022/01/16 01:28:22;;;;;;;108.37;64.27;;;26.40;2201.60;;;;;;5053209;28;20029;-68
2022/01/16 01:30:48;;;;;;;98.67;58.67;;;26.40;2201.60;;;;;;5051585;28;20034;-67
2022/01/16 01:33:15;;;;;;;107.67;60.90;;;26.50;2201.60;;;;;;5052189;28;20071;-68
2022/01/16 01:35:42;;;;;;;103.00;61.17;;;26.50;2201.60;;;;;;5051209;28;20025;-72
2022/01/16 01:38:11;;;;;;;113.27;63.90;;;51.20;2227.20;;;;;;5053948;28;20016;-68
2022/01/16 01:40:38;;;;;;;111.53;68.67;;;26.40;2201.60;;;;;;5052230;28;20061;-68
2022/01/16 01:51:02;;;;;;;114.50;70.23;;;26.30;2201.60;;;;;;5050052;28;20124;-68
2022/01/16 01:51:42;;;;;;;106.73;63.87;;;26.40;2201.60;;;;;;5050902;28;20059;-77
2022/01/16 01:54:08;;;;;;;107.93;61.53;;;26.30;2201.60;;;;;;5054921;28;20029;-68
2022/01/16 01:56:37;;;;;;;112.60;64.33;;;26.40;2201.60;;;;;;5150344;22;20023;-70
2022/01/16 01:59:03;;;;;;;108.30;63.40;;;26.30;2201.60;;;;;;5167903;22;20045;-67
2022/01/16 02:01:31;;;;;;;112.47;67.17;;;;;;;;;;5073886;28;20081;-68
2022/01/16 02:03:57;;;;;;;103.77;60.70;;;26.50;2201.60;;;;;;5071442;28;20021;-67
2022/01/16 02:06:26;;;;;;;97.20;58.80;;;26.40;2201.60;;;;;;5069668;28;20049;-74
2022/01/16 02:08:55;;;;;;;97.47;58.07;;;26.40;2201.60;;;;;;5071444;28;20029;-71
2022/01/16 02:11:27;;;;;;;100.37;58.20;;;26.50;2201.60;;;;;;5067919;28;20036;-67
2022/01/16 02:14:04;;;;;;;101.80;59.40;;;26.40;2201.60;;;;;;5067420;28;20028;-75
2022/01/16 02:28:29;;;;;;;111.00;62.70;;;26.30;2201.60;;;;;;5075151;28;20047;-77
2022/01/16 02:34:37;;;;;;;106.97;62.70;;;26.30;2201.60;;;;;;5072892;28;20039;-67
2022/01/16 02:36:48;;;;;;;99.33;61.93;;;26.30;2201.60;;;;;;5073178;28;20045;-68
2022/01/16 02:39:16;;;;;;;109.10;65.50;;;26.20;2201.60;;;;;;5074485;28;20033;-71
2022/01/16 02:41:44;;;;;;;118.83;72.50;;;26.10;2201.60;;;;;;5072678;28;20030;-67
2022/01/16 02:44:23;;;;;;;109.57;70.87;;;26.10;2201.60;;;;;;5075579;28;20032;-68
2022/01/16 02:46:50;;;;;;;112.80;69.27;;;26.00;2201.60;;;;;;5072689;28;20032;-71
2022/01/16 02:49:20;;;;;;;103.37;66.70;;;26.10;2201.60;;;;;;5071188;28;20012;-67
2022/01/16 02:51:46;;;;;;;103.37;65.27;;;26.10;2201.60;;;;;;5074185;28;20009;-69
2022/01/16 02:54:12;;;;;;;100.83;63.60;;;26.20;2201.60;;;;;;5071982;28;20061;-68
2022/01/16 02:56:39;;;;;;;111.97;70.50;;;26.10;2201.60;;;;;;5074406;28;20495;-75
2022/01/16 02:59:09;;;;;;;100.53;61.17;;;26.00;2201.60;;;;;;5073850;28;20033;-70
2022/01/16 03:01:35;;;;;;;96.17;58.70;;;26.00;2201.60;;;;;;5076017;28;20009;-73
2022/01/16 03:04:01;;;;;;;98.63;60.47;;;26.10;2201.60;;;;;;5074064;28;20075;-71
2022/01/16 03:06:28;;;;;;;98.23;58.33;;;26.10;2201.60;;;;;;5074282;28;20041;-67
2022/01/16 03:08:54;;;;;;;103.57;59.03;;;26.00;2201.60;;;;;;5071605;28;20013;-75
2022/01/16 03:11:38;;;;;;;100.30;58.30;;;26.00;2201.60;;;;;;5072115;28;20498;-69
2022/01/16 03:14:07;;;;;;;;;;;25.80;2201.60;;;;;;5069959;28;20033;-68
2022/01/16 03:16:34;;;;;;;99.47;56.87;;;25.80;2201.60;;;;;;5071299;28;19950;-67
2022/01/16 03:22:02;;;;;;;100.50;58.30;;;25.70;2201.60;;;;;;5074151;28;20020;-67
2022/01/16 03:24:35;;;;;;;93.13;57.73;;;25.80;2201.60;;;;;;5072616;28;20028;-76
2022/01/16 03:27:06;;;;;;;104.30;60.87;;;25.80;2201.60;;;;;;5072484;28;20021;-67
2022/01/16 03:29:33;;;;;;;103.90;61.23;;;25.70;2201.60;;;;;;5072658;28;20041;-67
2022/01/16 03:32:00;;;;;;;102.87;61.50;;;25.60;2201.60;;;;;;5074050;28;20025;-69
2022/01/16 03:34:27;;;;;;;97.70;59.20;;;25.60;2201.60;;;;;;5070176;28;20032;-68
2022/01/16 03:36:53;;;;;;;103.27;62.50;;;25.60;2201.60;;;;;;5068846;28;20024;-68
2022/01/16 03:39:19;;;;;;;99.10;56.87;;;25.60;2201.60;;;;;;5067881;28;20086;-68
2022/01/16 03:41:45;;;;;;;87.00;53.73;;;25.70;2201.60;;;;;;5071610;28;20013;-71
2022/01/16 03:44:11;;;;;;;91.67;55.33;;;25.70;2201.60;;;;;;5065760;28;20029;-67
2022/01/16 03:46:40;;;;;;;99.33;60.77;;;25.70;2201.60;;;;;;5068600;28;20033;-76
2022/01/16 03:49:09;;;;;;;95.00;56.20;;;25.70;2201.60;;;;;;5074168;28;20037;-77
2022/01/16 03:51:36;;;;;;;87.47;55.00;;;25.70;2201.60;;;;;;5074122;28;20032;-77
2022/01/16 03:54:04;;;;;;;80.33;50.27;;;25.70;2201.60;;;;;;5072004;28;20009;-71
2022/01/16 03:56:30;;;;;;;86.73;55.33;;;25.80;2201.60;;;;;;5075069;28;20020;-67
2022/01/16 03:58:56;;;;;;;84.13;50.77;;;25.80;2201.60;;;;;;5076522;28;20113;-77
2022/01/16 04:01:24;;;;;;;126.47;66.40;;;25.80;2201.60;;;;;;5059156;28;20041;-69
2022/01/16 04:03:54;;;;;;;101.70;56.33;;;25.80;2201.60;;;;;;5074112;28;20029;-73
2022/01/16 04:06:20;;;;;;;98.93;57.37;;;25.80;2201.60;;;;;;5071475;28;20549;-67
2022/01/16 04:08:47;;;;;;;96.47;54.87;;;25.80;2201.60;;;;;;5074117;28;20012;-70
2022/01/16 04:11:14;;;;;;;98.77;55.27;;;25.80;2201.60;;;;;;5072309;28;20021;-68
2022/01/16 04:16:38;;;;;;;95.53;51.63;;;25.90;2201.60;;;;;;5026599;28;20126;-68
2022/01/16 04:19:06;;;;;;;86.60;50.83;;;25.90;2201.60;;;;;;5016596;28;20030;-67
2022/01/16 04:21:32;;;;;;;88.40;49.77;;;25.90;2201.60;;;;;;5006207;28;20077;-67
2022/01/16 04:23:58;;;;;;;93.53;53.63;;;25.80;2201.60;;;;;;5010124;28;20057;-77
2022/01/16 04:26:25;;;;;;;93.90;53.17;;;25.80;2201.60;;;;;;5007964;28;20131;-77
2022/01/16 04:28:52;;;;;;;88.47;53.20;;;25.80;2201.60;;;;;;5010387;28;20041;-69
2022/01/16 04:31:19;;;;;;;92.67;53.13;;;25.80;2201.60;;;;;;5005702;28;20102;-76
2022/01/16 04:33:45;;;;;;;95.97;52.23;;;25.80;2201.60;;;;;;5006014;28;20017;-74
2022/01/16 04:36:12;;;;;;;100.30;54.80;;;25.80;2201.60;;;;;;5006553;28;20030;-73
2022/01/16 04:38:45;;;;;;;92.97;52.70;;;25.70;2201.60;;;;;;5009890;28;20030;-76
2022/01/16 04:44:02;;;;;;;90.53;51.37;;;25.70;2201.60;;;;;;5008662;28;20033;-67
2022/01/16 04:46:30;;;;;;;95.93;53.17;;;25.70;2201.60;;;;;;5008435;28;20043;-77
2022/01/16 04:48:57;;;;;;;90.67;50.63;;;25.60;2201.60;;;;;;5007391;28;20077;-67
2022/01/16 04:51:25;;;;;;;92.63;52.57;;;25.70;2201.60;;;;;;5013207;28;20021;-68
2022/01/16 04:53:51;;;;;;;90.40;51.77;;;25.70;2201.60;;;;;;5049128;28;20020;-69
2022/01/16 04:56:17;;;;;;;90.17;51.53;;;25.60;2201.60;;;;;;5030886;28;20025;-71
2022/01/16 04:58:43;;;;;;;92.97;52.07;;;25.70;2201.60;;;;;;5048906;28;20025;-73
2022/01/16 05:01:10;;;;;;;97.13;53.27;;;25.60;2201.60;;;;;;5048736;28;20057;-69
2022/01/16 05:03:36;;;;;;;92.73;53.30;;;0.80;2201.60;;;;;;5050475;28;20021;-68
2022/01/16 05:06:03;;;;;;;95.47;54.90;;;0.70;2201.60;;;;;;5050989;28;20032;-74
2022/01/16 05:08:29;;;;;;;117.83;61.33;;;0.70;2201.60;;;;;;5049896;28;20035;-68
2022/01/16 05:10:57;;;;;;;108.70;58.87;;;0.70;2201.60;;;;;;5048218;28;20113;-71
2022/01/16 05:13:31;;;;;;;96.80;55.87;;;0.60;2201.60;;;;;;5048972;28;20010;-67
2022/01/16 05:18:43;;;;;;;156.60;86.57;;;0.50;2201.60;;;;;;5049324;28;20087;-67
2022/01/16 05:21:10;;;;;;;128.37;75.67;;;0.50;2201.60;;;;;;5048620;28;20033;-72
2022/01/16 05:23:36;;;;;;;123.97;69.67;;;0.40;2201.60;;;;;;5049787;28;20061;-73
2022/01/16 05:26:03;;;;;;;123.13;70.67;;;0.30;2201.60;;;;;;5047845;28;20052;-67
2022/01/16 05:28:29;;;;;;;131.17;74.00;;;0.20;2201.60;;;;;;5044311;28;20029;-68
2022/01/16 05:30:56;;;;;;;128.20;73.43;;;0.20;2201.60;;;;;;5049416;28;20033;-73
2022/01/16 05:33:21;;;;;;;126.37;69.83;;;0.10;2201.60;;;;;;5047728;28;20036;-68
2022/01/16 05:35:48;;;;;;;127.70;71.50;;;0.10;2201.60;;;;;;5048695;28;20033;-71
2022/01/16 05:38:14;;;;;;;152.63;81.13;;;0.10;2201.60;;;;;;5049192;28;20056;-72
2022/01/16 05:40:40;;;;;;;132.63;66.60;;;0.10;2201.60;;;;;;5046580;28;20034;-68
2022/01/16 05:43:06;;;;;;;125.47;68.50;;;0.10;2201.60;;;;;;5045207;28;20010;-76
2022/01/16 05:45:33;;;;;;;127.37;67.33;;;0.00;2201.60;;;;;;5045879;28;20089;-67
2022/01/16 05:47:59;;;;;;;116.23;64.20;;;0.00;2201.60;;;;;;5047991;28;20068;-75
2022/01/16 05:50:25;;;;;;;111.73;59.17;;;0.10;2201.60;;;;;;5044013;28;20030;-77
2022/01/16 05:52:51;;;;;;;117.57;67.53;;;0.20;2201.60;;;;;;5045747;28;20026;-67
2022/01/16 05:55:18;;;;;;;120.87;69.40;;;0.20;2201.60;;;;;;5042096;28;20010;-77
2022/01/16 05:57:45;;;;;;;106.27;62.30;;;0.20;2201.60;;;;;;5042794;28;20105;-75
2022/01/16 06:00:12;;;;;;;118.30;65.43;;;;;;;;;;5049733;28;20005;-75
2022/01/16 06:02:38;;;;;;;200.37;109.77;;;0.30;2201.60;;;;;;5060238;28;20025;-67
2022/01/16 06:05:05;;;;;;;160.33;91.80;;;0.10;2201.60;;;;;;5055391;28;20021;-67
2022/01/16 06:07:31;;;;;;;135.33;82.07;;;0.00;2201.60;;;;;;5058826;28;20028;-67
2022/01/16 06:09:57;;;;;;;124.47;74.23;;;0.00;2201.60;;;;;;5058548;28;20048;-76
2022/01/16 06:12:23;;;;;;;142.83;82.80;;;0.20;2201.60;;;;;;5063826;28;20427;-77
2022/01/16 06:14:49;;;;;;;151.93;87.13;;;0.10;2201.60;;;;;;5065564;28;20033;-70
2022/01/16 06:17:15;;;;;;;123.93;69.97;;;0.20;2201.60;;;;;;5065117;28;20029;-76
2022/01/16 06:19:41;;;;;;;145.97;83.33;;;0.20;2201.60;;;;;;5068421;28;20032;-74
2022/01/16 06:22:07;;;;;;;106.30;61.73;;;0.20;2201.60;;;;;;5069968;28;20025;-68
2022/01/16 06:24:33;;;;;;;147.77;76.73;;;0.30;2201.60;;;;;;5071151;28;20033;-73
2022/01/16 06:26:59;;;;;;;101.07;59.27;;;0.40;2201.60;;;;;;5071821;28;20082;-74
2022/01/16 06:29:25;;;;;;;164.57;87.93;;;0.40;2201.60;;;;;;5053198;28;20040;-76
2022/01/16 06:31:51;;;;;;;257.37;129.70;;;0.40;2201.60;;;;;;5069086;28;20052;-69
2022/01/16 06:34:17;;;;;;;346.87;164.53;;;0.30;2201.60;;;;;;5063714;28;20037;-76
2022/01/16 06:36:44;;;;;;;211.70;109.77;;;0.40;2201.60;;;;;;5063867;28;20086;-67
2022/01/16 06:39:12;;;;;;;175.90;94.87;;;0.50;2201.60;;;;;;5055225;28;20366;-67
2022/01/16 06:41:38;;;;;;;246.37;113.27;;;0.50;2201.60;;;;;;5055031;28;20028;-67
2022/01/16 06:44:05;;;;;;;356.67;154.13;;;0.50;2201.60;;;;;;5063271;28;20032;-68
2022/01/16 06:46:31;;;;;;;291.70;145.20;;;0.60;2201.60;;;;;;5066950;28;20029;-68
2022/01/16 06:48:57;;;;;;;241.90;128.17;;;0.50;2201.60;;;;;;5065628;28;20090;-72
2022/01/16 06:51:24;;;;;;;243.57;126.80;;;0.40;2201.60;;;;;;5056008;28;20021;-74
2022/01/16 06:53:56;;;;;;;233.00;124.37;;;0.40;2201.60;;;;;;5064885;28;20029;-72
2022/01/16 06:56:23;;;;;;;277.87;150.53;;;0.40;2201.60;;;;;;5069963;28;20064;-77
2022/01/16 06:58:50;;;;;;;266.03;153.00;;;0.40;2201.60;;;;;;5069825;28;20395;-68
2022/01/16 07:01:16;;;;;;;220.57;123.33;;;0.50;2201.60;;;;;;5062041;28;20021;-73
2022/01/16 07:03:43;;;;;;;204.50;117.37;;;0.60;2201.60;;;;;;5066090;28;20021;-67
2022/01/16 07:06:09;;;;;;;232.37;130.83;;;0.70;2201.60;;;;;;5067990;28;20045;-68
2022/01/16 07:08:35;;;;;;;234.57;130.93;;;0.70;2201.60;;;;;;5072349;28;20108;-76
2022/01/16 07:11:01;;;;;;;478.33;266.10;;;0.80;2201.60;;;;;;5075108;28;20021;-77
2022/01/16 07:13:28;;;;;;;451.57;236.90;;;0.70;2201.60;;;;;;5073848;28;20015;-76
2022/01/16 07:15:54;;;;;;;534.37;290.33;;;0.80;2201.60;;;;;;5071256;28;20032;-75
2022/01/16 07:18:21;;;;;;;448.07;233.63;;;0.80;2201.60;;;;;;5066680;28;20021;-74
2022/01/16 07:20:47;;;;;;;538.43;312.20;;;0.90;2201.60;;;;;;5060460;28;20036;-68
2022/01/16 07:23:14;;;;;;;434.40;235.77;;;25.60;2201.60;;;;;;5056253;28;20487;-66
2022/01/16 07:25:41;;;;;;;422.60;242.60;;;25.60;2201.60;;;;;;5055746;28;20068;-71
2022/01/16 07:28:07;;;;;;;408.87;233.13;;;25.60;2201.60;;;;;;5055886;28;20025;-73
2022/01/16 07:30:34;;;;;;;477.60;263.53;;;25.60;2201.60;;;;;;5055432;28;20044;-72
2022/01/16 07:33:00;;;;;;;494.23;283.10;;;25.70;2201.60;;;;;;5055478;28;20032;-72
2022/01/16 07:35:26;;;;;;;507.47;302.63;;;25.70;2201.60;;;;;;5055562;28;20389;-69
2022/01/16 07:37:52;;;;;;;492.30;282.63;;;25.80;2201.60;;;;;;5055478;28;20501;-65
2022/01/16 07:40:20;;;;;;;498.50;282.17;;;25.80;2201.60;;;;;;5055433;28;20029;-72
2022/01/16 07:42:46;;;;;;;534.73;312.50;;;25.80;2201.60;;;;;;5055522;28;20055;-73
2022/01/16 07:45:13;;;;;;;563.47;330.17;;;25.80;2201.60;;;;;;5055441;28;20020;-73
2022/01/16 07:47:39;;;;;;;538.13;304.53;;;25.80;2201.60;;;;;;5055316;28;20068;-65
2022/01/16 07:50:06;;;;;;;505.40;280.87;;;25.90;2201.60;;;;;;5055610;28;20033;-72
2022/01/16 07:52:33;;;;;;;506.47;282.40;;;25.90;2201.60;;;;;;5055625;28;20068;-73
2022/01/16 07:54:58;;;;;;;476.23;267.40;;;26.10;2201.60;;;;;;5055259;28;20049;-66
2022/01/16 07:57:24;;;;;;;453.57;254.43;;;26.10;2201.60;;;;;;5055051;28;20021;-73
2022/01/16 07:59:51;;;;;;;431.43;240.53;;;26.20;2201.60;;;;;;5055191;28;20037;-65
2022/01/16 08:02:17;;;;;;;426.80;236.63;;;26.30;2201.60;;;;;;5055395;28;20390;-73
2022/01/16 08:04:44;;;;;;;395.73;221.20;;;26.40;2201.60;;;;;;5055127;28;20025;-73
2022/01/16 08:07:10;;;;;;;349.03;197.23;;;26.50;2201.60;;;;;;5054989;28;20024;-65
2022/01/16 08:09:37;;;;;;;373.73;205.60;;;51.20;2227.20;;;;;;5054379;28;20048;-65
2022/01/16 08:12:07;;;;;;;407.10;227.77;;;51.30;2227.20;;;;;;5054788;28;20454;-66
2022/01/16 08:14:34;;;;;;;430.07;258.00;;;51.30;2227.20;;;;;;5054790;28;20394;-66
2022/01/16 08:17:00;;;;;;;421.27;249.07;;;51.40;2227.20;;;;;;5054973;28;20031;-72
2022/01/16 08:19:27;;;;;;;440.80;268.50;;;51.40;2227.20;;;;;;5053984;28;20024;-65
2022/01/16 08:21:53;;;;;;;470.70;285.73;;;51.50;2227.20;;;;;;5054806;28;20021;-74
2022/01/16 08:24:19;;;;;;;444.60;267.03;;;51.60;2227.20;;;;;;5054749;28;20035;-70
2022/01/16 08:26:46;;;;;;;581.73;329.03;;;51.70;2227.20;;;;;;5054848;28;20100;-65
2022/01/16 08:29:12;;;;;;;710.33;382.80;;;51.70;2227.20;;;;;;5054465;28;20059;-66
2022/01/16 08:31:38;;;;;;;678.33;362.80;;;51.80;2227.20;;;;;;5054539;28;20072;-73
2022/01/16 08:34:04;;;;;;;650.33;358.80;;;51.90;2227.20;;;;;;5054586;28;20025;-74
2022/01/16 08:36:30;;;;;;;577.57;320.93;;;52.00;2227.20;;;;;;5054582;28;20096;-65
2022/01/16 08:38:56;;;;;;;570.57;318.23;;;52.10;2227.20;;;;;;5054518;28;20541;-73
2022/01/16 08:41:23;;;;;;;498.53;277.47;;;76.80;2227.20;;;;;;5054645;28;20029;-73
2022/01/16 08:43:49;;;;;;;436.03;239.40;;;76.90;2227.20;;;;;;5054362;28;20033;-66
2022/01/16 08:46:15;;;;;;;335.07;187.93;;;77.00;2227.20;;;;;;5054181;28;20050;-74
2022/01/16 08:48:41;;;;;;;284.80;167.30;;;77.00;2227.20;;;;;;5053888;28;20115;-73
2022/01/16 08:51:08;;;;;;;274.80;162.90;;;77.10;2227.20;;;;;;5054098;28;20021;-74
2022/01/16 08:53:34;;;;;;;273.00;157.87;;;77.20;2227.20;;;;;;5031286;28;20036;-73
2022/01/16 08:56:00;;;;;;;244.63;146.23;;;77.30;2227.20;;;;;;5036774;28;20033;-65
2022/01/16 08:58:27;;;;;;;214.77;132.57;;;77.30;2227.20;;;;;;5033973;28;20049;-74
2022/01/16 09:00:53;;;;;;;239.43;140.40;;;77.40;2227.20;;;;;;5034332;28;20433;-73
2022/01/16 09:03:21;;;;;;;223.47;134.87;;;77.50;2227.20;;;;;;5034138;28;20036;-65
2022/01/16 09:05:48;;;;;;;321.77;181.50;;;77.60;2227.20;;;;;;5033999;28;20028;-65
2022/01/16 09:08:15;;;;;;;319.77;181.93;;;102.40;2227.20;;;;;;5034261;28;20052;-66
2022/01/16 09:10:42;;;;;;;304.03;174.30;;;102.60;2227.20;;;;;;5034126;28;20390;-73
2022/01/16 09:13:15;;;;;;;315.63;186.37;;;102.80;2227.20;;;;;;5034070;28;20017;-65
2022/01/16 09:15:43;;;;;;;295.65;174.30;;;103.00;2227.20;;;;;;5039178;28;20029;-73
2022/01/16 09:18:10;;;;;;;317.80;191.90;;;103.10;2227.20;;;;;;5035657;28;20064;-68
2022/01/16 09:20:36;;;;;;;311.43;189.13;;;103.30;2227.20;;;;;;5033673;28;20022;-72
2022/01/16 09:23:03;;;;;;;285.00;174.13;;;128.00;2252.80;;;;;;5033569;28;20041;-72
2022/01/16 09:25:29;;;;;;;249.27;162.67;;;128.20;2252.80;;;;;;5034046;28;20395;-73
2022/01/16 09:27:54;;;;;;;235.33;148.63;;;128.50;2252.80;;;;;;5033792;28;20025;-73
2022/01/16 09:30:22;;;;;;;141.90;94.53;;;128.70;2252.80;;;;;;5033331;28;20449;-73
2022/01/16 09:32:48;;;;;;;100.73;68.97;;;128.50;2252.80;;;;;;5032476;28;20029;-74
2022/01/16 09:35:15;;;;;;;97.73;71.13;;;154.00;2252.80;;;;;;5033607;28;20033;-75
2022/01/16 09:37:41;;;;;;;91.67;61.27;;;179.50;2252.80;;;;;;5042577;28;20053;-65
2022/01/16 09:40:09;;;;;;;89.73;58.67;;;205.40;2124.80;;;;;;5040925;28;20025;-75
2022/01/16 09:42:36;;;;;;;80.97;51.75;;;231.00;1971.20;;;;;;5042417;28;20032;-66
2022/01/16 09:45:04;;;;;;;80.72;53.28;;;256.00;1843.20;;;;;;5042793;28;20022;-65
2022/01/16 09:47:30;;;;;;;68.55;48.88;;;256.30;1817.60;;;;;;5043528;28;20045;-66
2022/01/16 09:49:56;;;;;;;75.88;52.00;;;256.80;1792.00;;;;;;5042277;28;20076;-77
2022/01/16 09:52:22;;;;;;;75.57;50.50;;;282.40;1715.20;;;;;;5041014;28;20102;-72
2022/01/16 09:54:49;;;;;;;85.00;51.85;;;333.10;1587.20;;;;;;5041042;28;20032;-74
2022/01/16 09:57:15;;;;;;;78.03;52.53;;;308.10;1587.20;;;;;;5038093;28;20071;-69
2022/01/16 09:59:44;;;;;;;68.40;47.85;;;358.60;1536.00;;;;;;5040633;28;20041;-77
2022/01/16 10:02:09;;;;;;;64.85;46.55;;;358.70;1459.20;;;;;;5042057;28;20025;-80
2022/01/16 10:04:39;;;;;;;70.00;46.72;;;358.60;1459.20;;;;;;5041753;28;20026;-72
2022/01/16 10:07:08;;;;;;;60.38;39.63;;;358.40;1484.80;;;;;;5040439;28;20049;-66
2022/01/16 10:09:37;;;;;;;66.03;46.80;;;333.60;1459.20;;;;;;5041550;28;20107;-66
2022/01/16 10:12:13;;;;;;;63.47;45.33;;;358.90;1433.60;;;;;;5042846;28;20025;-79
2022/01/16 10:14:49;;;;;;;55.08;38.70;;;435.20;1331.20;;;;;;5042484;28;20033;-66
2022/01/16 10:17:23;;;;;;;75.68;50.75;;;486.80;1126.40;;;;;;5024077;28;20049;-77
2022/01/16 10:20:04;;;;;;;55.95;38.65;;;537.90;998.40;;;;;;5041015;28;20033;-67
2022/01/16 10:22:44;;;;;;;56.97;43.05;;;589.10;896.00;;;;;;5041266;28;20021;-66
2022/01/16 10:25:11;;;;;;;55.85;37.80;;;640.10;793.60;;;;;;5041402;28;20025;-66
2022/01/16 10:27:39;;;;;;;51.85;35.70;;;640.70;742.40;;;;;;5040809;28;20408;-76
2022/01/16 10:30:08;;;;;;;50.40;36.97;;;640.60;742.40;;;;;;5041971;28;20068;-77
2022/01/16 10:32:42;;;;;;;51.20;36.28;;;615.30;768.00;;;;;;5041392;28;20025;-66
2022/01/16 10:35:17;;;;;;;49.22;37.85;;;614.40;819.20;;;;;;5040989;28;20480;-73
2022/01/16 10:37:52;;;;;;;49.95;39.55;;;666.00;742.40;;;;;;5041790;28;20017;-76
2022/01/16 10:40:39;;;;;;;49.03;36.72;;;666.10;768.00;;;;;;5043970;28;20389;-77
2022/01/16 10:43:13;;;;;;;69.90;46.95;;;640.20;742.40;;;;;;5042261;28;20524;-77
2022/01/16 10:45:41;;;;;;;74.80;49.50;;;563.90;844.80;;;;;;5036867;28;20030;-64
2022/01/16 10:48:07;;;;;;;71.50;49.25;;;563.40;896.00;;;;;;5036876;28;20052;-64
2022/01/16 10:50:38;;;;;;;66.15;45.25;;;538.30;921.60;;;;;;5049641;28;20088;-63
2022/01/16 10:53:12;;;;;;;66.95;42.80;;;538.00;921.60;;;;;;5049915;28;20025;-63
2022/01/16 10:55:41;;;;;;;60.30;42.90;;;512.40;921.60;;;;;;5056350;28;20029;-63
2022/01/16 10:58:19;;;;;;;61.70;43.08;;;512.00;947.20;;;;;;5046244;28;20046;-70
2022/01/16 11:00:56;;;;;;;74.32;47.17;;;486.40;1049.60;;;;;;5044124;28;20022;-64
2022/01/16 11:03:23;;;;;;;72.63;48.80;;;487.10;998.40;;;;;;5044156;28;20037;-64
2022/01/16 11:05:51;;;;;;;64.10;45.78;;;486.40;1024.00;;;;;;5049165;28;20097;-66
2022/01/16 11:08:20;;;;;;;55.58;42.15;;;512.90;947.20;;;;;;5047498;28;20032;-64
2022/01/16 11:10:48;;;;;;;54.42;39.80;;;588.80;870.40;;;;;;5036019;28;20037;-74
2022/01/16 11:13:17;;;;;;;43.42;33.05;;;538.20;896.00;;;;;;5035786;28;20025;-63
2022/01/16 11:15:49;;;;;;;43.50;32.78;;;486.50;1024.00;;;;;;5035312;28;20383;-64
2022/01/16 11:18:16;;;;;;;51.15;37.75;;;435.30;1152.00;;;;;;5035601;28;20467;-64
2022/01/16 11:20:51;;;;;;;57.10;40.85;;;409.70;1203.20;;;;;;5038268;28;20033;-64
2022/01/16 11:25:58;;;;;;;52.25;36.65;;;359.10;1356.80;;;;;;5034744;28;20502;-63
2022/01/16 11:28:24;;;;;;;48.72;34.13;;;358.50;1356.80;;;;;;5035745;28;20490;-63
2022/01/16 11:30:56;;;;;;;57.28;38.65;;;333.60;1408.00;;;;;;5035918;28;20056;-63
2022/01/16 11:33:24;;;;;;;52.17;36.95;;;333.20;1459.20;;;;;;5035652;28;20108;-63
2022/01/16 11:35:57;;;;;;;64.55;42.08;;;332.90;1484.80;;;;;;5035499;28;20064;-63
2022/01/16 11:38:35;;;;;;;67.43;41.35;;;308.10;1484.80;;;;;;5035746;28;20022;-63
2022/01/16 11:41:15;;;;;;;55.42;37.13;;;307.70;1561.60;;;;;;5035676;28;20063;-63
2022/01/16 11:43:55;;;;;;;71.25;47.15;;;307.30;1536.00;;;;;;5035531;28;20025;-63
2022/01/16 11:46:31;;;;;;;44.15;32.20;;;282.40;1536.00;;;;;;5035917;28;20079;-63
2022/01/16 11:48:59;;;;;;;386.02;55.08;;;282.10;1587.20;;;;;;5035797;28;20483;-63
2022/01/16 11:51:40;;;;;;;127.70;40.22;;;282.00;1587.20;;;;;;5035492;28;20414;-63
2022/01/16 11:54:33;;;;;;;52.38;35.25;;;281.80;1612.80;;;;;;5034816;28;20025;-63
2022/01/16 11:57:19;;;;;;;143.63;44.83;;;281.80;1638.40;;;;;;5034208;28;20033;-70
2022/01/16 11:59:47;;;;;;;105.30;39.65;;;281.70;1664.00;;;;;;5035638;28;20041;-63
2022/01/16 12:02:15;;;;;;;135.57;41.00;;;281.70;1689.60;;;;;;5035263;28;20037;-63
2022/01/16 12:04:43;;;;;;;59.90;39.63;;;281.70;1689.60;;;;;;5035268;28;20528;-63
2022/01/16 12:07:12;;;;;;;114.63;42.03;;;281.60;1715.20;;;;;;5035423;28;20029;-63
2022/01/16 12:09:41;;;;;;;80.47;38.53;;;281.70;1715.20;;;;;;5035110;28;20034;-63
2022/01/16 12:12:12;;;;;;;71.00;33.50;;;307.90;1587.20;;;;;;5035150;28;20021;-63
2022/01/16 12:15:05;;;;;;;56.90;35.55;;;359.00;1408.00;;;;;;5035135;28;20053;-63
2022/01/16 12:17:38;;;;;;;50.83;34.47;;;333.00;1510.40;;;;;;5035273;28;20026;-63
2022/01/16 12:20:13;;;;;;;51.25;32.30;;;384.00;1382.40;;;;;;5034998;28;20034;-70
2022/01/16 12:22:53;;;;;;;55.85;36.13;;;333.50;1484.80;;;;;;5034942;28;20087;-63
2022/01/16 12:25:28;;;;;;;49.33;32.35;;;333.70;1484.80;;;;;;5034909;28;20029;-63
2022/01/16 12:28:02;;;;;;;54.45;33.53;;;333.40;1484.80;;;;;;5035090;28;20107;-63
2022/01/16 12:30:55;;;;;;;61.08;37.25;;;333.20;1510.40;;;;;;5034857;28;20036;-63
2022/01/16 12:33:37;;;;;;;55.78;36.30;;;308.10;1536.00;;;;;;5051245;28;20036;-63
2022/01/16 12:36:18;;;;;;;48.38;33.30;;;307.80;1587.20;;;;;;5054089;28;20034;-63
2022/01/16 12:38:46;;;;;;;46.53;33.63;;;332.80;1561.60;;;;;;5052906;28;20036;-69
2022/01/16 12:41:31;;;;;;;51.67;35.25;;;333.00;1536.00;;;;;;5042037;28;20017;-72
2022/01/16 12:44:01;;;;;;;51.10;32.92;;;332.90;1561.60;;;;;;5044428;28;20032;-72
2022/01/16 12:46:34;;;;;;;49.45;33.85;;;358.40;1484.80;;;;;;5052740;28;20025;-64